Time;durP1;ratioP1;P1;durP2;ratioP2;P2;SDS_P1;SDS_P2;PMS_P1;PMS_P2;Temp;Humidity;BMP_temperature;BMP_pressure;BME280_temperature;BME280_humidity;BME280_pressure;Samples;Min_cycle;Max_cycle;Signal;HPM_P1;HPM_P2
2023/10/25 00:01:42;;;;;;;;;;;;;;;9.46;83.31;100274.16;105934;1260;61366;-80
2023/10/25 00:04:08;;;;;;;;;;;;;;;9.46;83.34;100273.98;105790;1261;124791;-80
2023/10/25 00:06:35;;;;;;;;;;;;;;;9.46;83.37;100273.80;105928;1260;61276;-75
2023/10/25 00:09:01;;;;;;;;;;;;;;;9.44;83.28;100271.63;105744;1260;124620;-75
2023/10/25 00:11:28;;;;;;;;;;;;;;;9.41;83.42;100270.53;105697;1267;73054;-76
2023/10/25 00:13:55;;;;;;;;;;;;;;;9.40;83.47;100272.06;105830;1260;61390;-80
2023/10/25 00:16:22;;;;;;;;;;;;;;;9.39;83.56;100275.91;105816;1258;124712;-80
2023/10/25 00:18:48;;;;;;;;;;;;;;;9.41;83.69;100280.16;105969;1263;61250;-80
2023/10/25 00:21:15;;;;;;;;;;;;;;;9.43;83.82;100277.59;105756;1260;124809;-80
2023/10/25 00:23:41;;;;;;;;;;;;;;;9.46;83.76;100276.73;105982;1256;71393;-80
2023/10/25 00:26:08;;;;;;;;;;;;;;;9.45;83.63;100273.59;105968;1256;61343;-76
2023/10/25 00:28:34;;;;;;;;;;;;;;;9.43;83.69;100271.97;105773;1258;124562;-75
2023/10/25 00:31:01;;;;;;;;;;;;;;;9.41;83.77;100273.33;105834;1256;73474;-76
2023/10/25 00:33:28;;;;;;;;;;;;;;;9.42;83.88;100270.39;105708;1259;125365;-75
2023/10/25 00:35:55;;;;;;;;;;;;;;;9.43;83.88;100268.12;105797;1260;72919;-75
2023/10/25 00:38:22;;;;;;;;;;;;;;;9.45;83.96;100263.95;105716;1260;124957;-75
2023/10/25 00:40:48;;;;;;;;;;;;;;;9.46;83.98;100260.81;105835;1262;61331;-80
2023/10/25 00:43:16;;;;;;;;;;;;;;;9.45;83.97;100257.30;105919;1258;74195;-80
2023/10/25 00:45:55;;;;;;;;;;;;;;;9.45;83.98;100252.92;105848;1260;125145;-80
2023/10/25 00:48:21;;;;;;;;;;;;;;;9.42;83.91;100252.52;105898;1258;71375;-80
2023/10/25 00:50:48;;;;;;;;;;;;;;;9.42;84.07;100248.14;105802;1260;125319;-80
2023/10/25 00:53:14;;;;;;;;;;;;;;;9.41;84.01;100250.37;105801;1260;61260;-80
2023/10/25 00:55:41;;;;;;;;;;;;;;;9.40;84.18;100252.45;105878;1260;74855;-80
2023/10/25 00:58:07;;;;;;;;;;;;;;;9.42;84.33;100247.42;105892;1256;124774;-80
2023/10/25 01:00:34;;;;;;;;;;;;;;;9.44;84.40;100242.20;105699;1257;61395;-79
2023/10/25 01:03:01;;;;;;;;;;;;;;;9.45;84.37;100241.89;105805;1258;124721;-80
2023/10/25 01:05:28;;;;;;;;;;;;;;;9.43;84.29;100233.45;105811;1258;61303;-75
2023/10/25 01:07:54;;;;;;;;;;;;;;;9.43;84.38;100225.38;105856;1261;74777;-74
2023/10/25 01:10:21;;;;;;;;;;;;;;;9.42;84.40;100222.73;105647;1260;125044;-75
2023/10/25 01:12:47;;;;;;;;;;;;;;;9.41;84.48;100220.44;105959;1256;61132;-75
2023/10/25 01:15:14;;;;;;;;;;;;;;;9.37;84.44;100217.02;105802;1260;124544;-76
2023/10/25 01:17:40;;;;;;;;;;;;;;;9.33;84.49;100217.83;105849;1257;61253;-74
2023/10/25 01:20:07;;;;;;;;;;;;;;;9.32;84.70;100212.90;105833;1260;75622;-75
2023/10/25 01:22:34;;;;;;;;;;;;;;;9.30;84.66;100210.41;105789;1258;124814;-75
2023/10/25 01:25:00;;;;;;;;;;;;;;;9.28;84.78;100205.80;105905;1258;72535;-75
2023/10/25 01:27:27;;;;;;;;;;;;;;;9.28;84.86;100203.70;105779;1255;125058;-75
2023/10/25 01:29:53;;;;;;;;;;;;;;;9.27;84.85;100200.35;105929;1261;59565;-75
2023/10/25 01:32:20;;;;;;;;;;;;;;;9.24;84.90;100201.70;105827;1255;123764;-76
2023/10/25 01:34:46;;;;;;;;;;;;;;;9.21;84.92;100193.74;105842;1261;66378;-81
2023/10/25 01:37:13;;;;;;;;;;;;;;;9.16;84.94;100189.98;105912;1257;72662;-80
2023/10/25 01:39:40;;;;;;;;;;;;;;;9.13;85.01;100186.75;105754;1256;124798;-80
2023/10/25 01:42:06;;;;;;;;;;;;;;;9.10;85.05;100187.39;106019;1260;61189;-80
2023/10/25 01:44:33;;;;;;;;;;;;;;;9.07;85.24;100179.78;105915;1260;124689;-79
2023/10/25 01:47:00;;;;;;;;;;;;;;;9.04;85.31;100173.95;105923;1261;66304;-80
2023/10/25 01:49:26;;;;;;;;;;;;;;;9.01;85.35;100173.88;105921;1260;72779;-80
2023/10/25 01:51:53;;;;;;;;;;;;;;;8.99;85.40;100171.56;105884;1260;125935;-80
2023/10/25 01:54:19;;;;;;;;;;;;;;;8.96;85.52;100169.39;106008;1257;61232;-79
2023/10/25 01:56:46;;;;;;;;;;;;;;;8.97;85.69;100167.84;105849;1257;124924;-79
2023/10/25 01:59:12;;;;;;;;;;;;;;;8.96;85.65;100163.44;105783;1260;64730;-80
2023/10/25 02:01:39;;;;;;;;;;;;;;;8.94;85.72;100160.61;105968;1257;73197;-80
2023/10/25 02:04:07;;;;;;;;;;;;;;;8.93;85.89;100161.65;105816;1260;125232;-80
2023/10/25 02:06:34;;;;;;;;;;;;;;;8.90;85.98;100159.13;105955;1260;61273;-79
2023/10/25 02:09:00;;;;;;;;;;;;;;;8.91;86.10;100153.35;105850;1258;124787;-79
2023/10/25 02:11:27;;;;;;;;;;;;;;;8.92;86.20;100151.29;105823;1258;66197;-75
2023/10/25 02:13:56;;;;;;;;;;;;;;;8.93;86.42;100148.34;105894;1260;71441;-76
2023/10/25 02:16:23;;;;;;;;;;;;;;;8.93;86.36;100147.45;107069;1258;124675;-75
2023/10/25 02:18:49;;;;;;;;;;;;;;;8.90;86.38;100142.69;106030;1257;59959;-80
2023/10/25 02:21:16;;;;;;;;;;;;;;;8.91;86.65;100136.39;105885;1260;124877;-75
2023/10/25 02:23:43;;;;;;;;;;;;;;;8.92;86.85;100135.20;105861;1260;66340;-80
2023/10/25 02:26:09;;;;;;;;;;;;;;;8.92;86.88;100128.73;105780;1258;72593;-81
2023/10/25 02:28:36;;;;;;;;;;;;;;;8.94;86.98;100130.52;105746;1258;124563;-81
2023/10/25 02:31:02;;;;;;;;;;;;;;;8.97;87.13;100129.35;105943;1257;61163;-81
2023/10/25 02:33:29;;;;;;;;;;;;;;;9.00;87.22;100128.89;105883;1256;124847;-81
2023/10/25 02:35:55;;;;;;;;;;;;;;;9.00;87.20;100127.14;105890;1256;64721;-81
2023/10/25 02:38:22;;;;;;;;;;;;;;;9.00;87.27;100126.27;105857;1257;124813;-81
2023/10/25 02:40:48;;;;;;;;;;;;;;;9.00;87.25;100124.52;105831;1260;61195;-81
2023/10/25 02:43:15;;;;;;;;;;;;;;;9.01;87.40;100123.30;105906;1259;61235;-80
2023/10/25 02:45:41;;;;;;;;;;;;;;;9.02;87.57;100122.61;105846;1257;124564;-75
2023/10/25 02:48:12;;;;;;;;;;;;;;;9.04;87.57;100122.84;105993;1258;66282;-80
2023/10/25 02:50:39;;;;;;;;;;;;;;;9.05;87.71;100118.84;105817;1260;124916;-80
2023/10/25 02:53:05;;;;;;;;;;;;;;;9.04;87.70;100119.19;106075;1258;61351;-74
2023/10/25 02:55:35;;;;;;;;;;;;;;;9.04;87.76;100116.71;106129;1256;61228;-74
2023/10/25 02:58:02;;;;;;;;;;;;;;;9.06;87.93;100117.81;107484;1256;124920;-75
2023/10/25 03:00:28;;;;;;;;;;;;;;;9.08;88.00;100118.38;105922;1256;65575;-80
2023/10/25 03:02:55;;;;;;;;;;;;;;;9.08;88.08;100113.31;105946;1260;125242;-80
2023/10/25 03:05:22;;;;;;;;;;;;;;;9.08;88.03;100111.56;105950;1257;61355;-74
2023/10/25 03:07:48;;;;;;;;;;;;;;;9.07;88.14;100108.23;105900;1257;61225;-80
2023/10/25 03:10:15;;;;;;;;;;;;;;;9.06;88.10;100108.35;105609;1257;124608;-81
2023/10/25 03:12:41;;;;;;;;;;;;;;;9.05;88.31;100108.52;105900;1261;65087;-80
2023/10/25 03:15:08;;;;;;;;;;;;;;;9.07;88.50;100104.20;105798;1258;124715;-80
2023/10/25 03:17:35;;;;;;;;;;;;;;;9.09;88.48;100102.14;106002;1255;61391;-80
2023/10/25 03:20:02;;;;;;;;;;;;;;;9.10;88.47;100097.59;105903;1258;61293;-80
2023/10/25 03:22:29;;;;;;;;;;;;;;;9.11;88.56;100097.45;105715;1256;124575;-80
2023/10/25 03:24:56;;;;;;;;;;;;;;;9.13;88.52;100088.04;105746;1257;61319;-76
2023/10/25 03:27:22;;;;;;;;;;;;;;;9.13;88.56;100089.61;105582;1257;125041;-76
2023/10/25 03:29:49;;;;;;;;;;;;;;;9.17;88.63;100089.67;105699;1258;59712;-75
2023/10/25 03:32:15;;;;;;;;;;;;;;;9.20;88.75;100084.48;105740;1258;124911;-75
2023/10/25 03:34:42;;;;;;;;;;;;;;;9.20;88.62;100083.96;108930;1257;74460;-74
2023/10/25 03:37:08;;;;;;;;;;;;;;;9.21;88.68;100083.98;107778;1255;66765;-75
2023/10/25 03:39:35;;;;;;;;;;;;;;;9.20;88.54;100079.42;105668;1260;124864;-74
2023/10/25 03:42:01;;;;;;;;;;;;;;;9.21;88.68;100074.72;105821;1260;61363;-75
2023/10/25 03:44:29;;;;;;;;;;;;;;;9.22;88.69;100071.58;105800;1261;124870;-74
2023/10/25 03:46:55;;;;;;;;;;;;;;;9.25;88.74;100074.96;105815;1257;73284;-74
2023/10/25 03:49:22;;;;;;;;;;;;;;;9.25;88.74;100069.20;105822;1256;63899;-78
2023/10/25 03:51:48;;;;;;;;;;;;;;;9.24;88.68;100062.85;106264;1255;125364;-77
2023/10/25 03:54:15;;;;;;;;;;;;;;;9.23;88.73;100059.87;105933;1258;61306;-77
2023/10/25 03:56:42;;;;;;;;;;;;;;;9.24;88.87;100059.71;105880;1258;126978;-83
2023/10/25 03:59:08;;;;;;;;;;;;;;;9.24;88.69;100061.63;106566;1261;73366;-83
2023/10/25 04:01:35;;;;;;;;;;;;;;;9.23;88.80;100057.42;106486;1257;65313;-84
2023/10/25 04:04:02;;;;;;;;;;;;;;;9.25;88.85;100055.86;106519;1256;124533;-84
2023/10/25 04:06:29;;;;;;;;;;;;;;;9.24;88.72;100049.91;106415;1258;61243;-83
2023/10/25 04:08:55;;;;;;;;;;;;;;;9.25;88.81;100050.80;106371;1256;125544;-83
2023/10/25 04:11:22;;;;;;;;;;;;;;;9.25;88.92;100046.26;106579;1260;75203;-83
2023/10/25 04:13:48;;;;;;;;;;;;;;;9.26;88.90;100041.55;106971;1256;64949;-83
2023/10/25 04:16:15;;;;;;;;;;;;;;;9.29;89.03;100040.89;105994;1257;125243;-84
2023/10/25 04:18:42;;;;;;;;;;;;;;;9.31;89.07;100039.17;106359;1256;61350;-82
2023/10/25 04:21:09;;;;;;;;;;;;;;;9.32;88.98;100036.40;105726;1256;125856;-83
2023/10/25 04:23:35;;;;;;;;;;;;;;;9.32;88.97;100031.67;105828;1260;74421;-83
2023/10/25 04:26:03;;;;;;;;;;;;;;;9.32;89.13;100030.27;105783;1257;65960;-76
2023/10/25 04:28:29;;;;;;;;;;;;;;;9.35;89.21;100030.14;105843;1256;126477;-76
2023/10/25 04:30:56;;;;;;;;;;;;;;;9.32;89.23;100020.82;105645;1261;61353;-76
2023/10/25 04:33:23;;;;;;;;;;;;;;;9.33;89.29;100023.98;105768;1256;124830;-76
2023/10/25 04:35:49;;;;;;;;;;;;;;;9.35;89.44;100018.95;105888;1256;72802;-76
2023/10/25 04:38:16;;;;;;;;;;;;;;;9.36;89.43;100020.37;105719;1260;125218;-72
2023/10/25 04:40:42;;;;;;;;;;;;;;;9.35;89.51;100019.30;105945;1256;61218;-74
2023/10/25 04:43:09;;;;;;;;;;;;;;;9.36;89.48;100016.16;105906;1259;61253;-76
2023/10/25 04:45:35;;;;;;;;;;;;;;;9.37;89.61;100014.43;105947;1256;125259;-75
2023/10/25 04:48:02;;;;;;;;;;;;;;;9.40;89.62;100010.10;105677;1260;74174;-78
2023/10/25 04:50:34;;;;;;;;;;;;;;;9.41;89.58;100013.63;105937;1255;124950;-78
2023/10/25 04:53:04;;;;;;;;;;;;;;;9.39;89.50;100005.70;105764;1257;72973;-82
2023/10/25 04:55:31;;;;;;;;;;;;;;;9.43;89.62;100009.29;106569;1259;61376;-79
2023/10/25 04:57:57;;;;;;;;;;;;;;;9.44;89.69;100007.73;106327;1260;124700;-78
2023/10/25 05:00:24;;;;;;;;;;;;;;;9.43;89.56;100004.39;105959;1256;73399;-76
2023/10/25 05:02:50;;;;;;;;;;;;;;;9.41;89.45;100006.61;105713;1256;124791;-75
2023/10/25 05:05:17;;;;;;;;;;;;;;;9.41;89.64;100007.84;105926;1260;72757;-75
2023/10/25 05:07:44;;;;;;;;;;;;;;;9.43;89.71;100005.59;105760;1256;61330;-76
2023/10/25 05:10:12;;;;;;;;;;;;;;;9.45;89.65;100006.16;105867;1256;124918;-76
2023/10/25 05:12:42;;;;;;;;;;;;;;;9.46;89.68;100009.67;105802;1256;73497;-75
2023/10/25 05:15:09;;;;;;;;;;;;;;;9.44;89.60;100010.20;105849;1256;124719;-76
2023/10/25 05:17:37;;;;;;;;;;;;;;;9.43;89.58;100007.36;105872;1257;72743;-76
2023/10/25 05:20:05;;;;;;;;;;;;;;;9.42;89.58;100009.61;105790;1256;61273;-74
2023/10/25 05:22:38;;;;;;;;;;;;;;;9.39;89.50;100008.85;105739;1260;124512;-74
2023/10/25 05:25:05;;;;;;;;;;;;;;;9.38;89.64;100010.23;105671;1258;74734;-74
2023/10/25 05:27:32;;;;;;;;;;;;;;;9.38;89.59;100010.05;105711;1255;124647;-74
2023/10/25 05:30:03;;;;;;;;;;;;;;;9.37;89.67;100008.30;105758;1258;72707;-74
2023/10/25 05:32:33;;;;;;;;;;;;;;;9.37;89.70;100007.24;105788;1255;124903;-74
2023/10/25 05:35:03;;;;;;;;;;;;;;;9.37;89.66;100008.30;105768;1256;61139;-75
2023/10/25 05:37:30;;;;;;;;;;;;;;;9.33;89.62;100010.34;105823;1255;74712;-74
2023/10/25 05:39:56;;;;;;;;;;;;;;;9.32;89.69;100010.67;105662;1255;124759;-75
2023/10/25 05:42:27;;;;;;;;;;;;;;;9.32;89.73;100011.36;105848;1256;72695;-76
2023/10/25 05:44:56;;;;;;;;;;;;;;;9.33;89.77;100005.43;105660;1256;125696;-75
2023/10/25 05:47:23;;;;;;;;;;;;;;;9.33;89.83;100006.32;105882;1255;59353;-75
2023/10/25 05:49:50;;;;;;;;;;;;;;;9.36;90.02;100007.76;106109;1256;75377;-80
2023/10/25 05:52:17;;;;;;;;;;;;;;;9.39;89.96;100008.51;106081;1256;124809;-80
2023/10/25 05:54:43;;;;;;;;;;;;;;;9.39;89.90;100009.21;106043;1260;72658;-78
2023/10/25 05:57:10;;;;;;;;;;;;;;;9.39;89.86;100003.78;105968;1257;125144;-75
2023/10/25 05:59:37;;;;;;;;;;;;;;;9.41;89.96;100003.98;106006;1256;61321;-79
2023/10/25 06:02:04;;;;;;;;;;;;;;;9.41;89.85;100005.21;106241;1257;74675;-74
2023/10/25 06:04:30;;;;;;;;;;;;;;;9.39;89.89;100002.90;106015;1255;123914;-75
2023/10/25 06:06:57;;;;;;;;;;;;;;;9.40;89.88;99999.41;106020;1257;72502;-75
2023/10/25 06:09:24;;;;;;;;;;;;;;;9.37;89.84;100001.48;106028;1256;124980;-75
2023/10/25 06:11:51;;;;;;;;;;;;;;;9.36;89.87;100003.55;105878;1256;61684;-75
2023/10/25 06:14:18;;;;;;;;;;;;;;;9.36;89.85;100001.80;108892;1256;124774;-76
2023/10/25 06:16:44;;;;;;;;;;;;;;;9.39;90.03;99999.92;108294;1255;66223;-75
2023/10/25 06:19:11;;;;;;;;;;;;;;;9.42;90.02;99998.77;105702;1259;61270;-75
2023/10/25 06:21:38;;;;;;;;;;;;;;;9.46;90.12;99999.17;105826;1260;124387;-75
2023/10/25 06:24:04;;;;;;;;;;;;;;;9.48;90.13;99999.91;105758;1257;61309;-75
2023/10/25 06:26:31;;;;;;;;;;;;;;;9.48;89.94;100000.44;105842;1254;125145;-75
2023/10/25 06:28:57;;;;;;;;;;;;;;;9.46;89.91;99997.41;105911;1255;61264;-76
2023/10/25 06:31:24;;;;;;;;;;;;;;;9.45;90.01;99997.05;106047;1256;72482;-76
2023/10/25 06:33:51;;;;;;;;;;;;;;;9.46;90.05;99999.17;105869;1256;124545;-75
2023/10/25 06:36:17;;;;;;;;;;;;;;;9.48;90.10;99996.59;105943;1254;61247;-76
2023/10/25 06:38:44;;;;;;;;;;;;;;;9.47;90.03;99991.85;105835;1255;124553;-75
2023/10/25 06:41:17;;;;;;;;;;;;;;;9.47;90.11;99991.48;105870;1256;65935;-76
2023/10/25 06:43:44;;;;;;;;;;;;;;;9.47;89.99;99989.74;105917;1256;73177;-75
2023/10/25 06:46:11;;;;;;;;;;;;;;;9.48;90.06;99991.34;105780;1260;124555;-75
2023/10/25 06:48:38;;;;;;;;;;;;;;;9.51;90.08;99988.75;105950;1256;61380;-76
2023/10/25 06:51:05;;;;;;;;;;;;;;;9.51;89.96;99989.45;105573;1257;124722;-76
2023/10/25 06:53:32;;;;;;;;;;;;;;;9.52;90.02;99986.67;105934;1256;64925;-76
2023/10/25 06:55:59;;;;;;;;;;;;;;;9.52;89.98;99984.95;105926;1260;71827;-75
2023/10/25 06:58:26;;;;;;;;;;;;;;;9.54;90.10;99983.20;108934;1256;124814;-76
2023/10/25 07:00:54;;;;;;;;;;;;;;;9.57;90.17;99983.25;106453;1256;61280;-76
2023/10/25 07:03:20;;;;;;;;;;;;;;;9.58;90.05;99977.66;105840;1260;124391;-75
2023/10/25 07:05:47;;;;;;;;;;;;;;;9.59;90.05;99978.90;106033;1261;66651;-75
2023/10/25 07:08:14;;;;;;;;;;;;;;;9.58;89.96;99975.38;105828;1256;71344;-76
2023/10/25 07:10:40;;;;;;;;;;;;;;;9.57;90.00;99978.17;105927;1255;59372;-75
2023/10/25 07:13:07;;;;;;;;;;;;;;;9.61;90.07;99979.63;105889;1259;61278;-75
2023/10/25 07:15:35;;;;;;;;;;;;;;;9.63;90.05;99977.38;105821;1254;124394;-74
2023/10/25 07:18:02;;;;;;;;;;;;;;;9.65;90.24;99976.39;105874;1256;66335;-75
2023/10/25 07:20:28;;;;;;;;;;;;;;;9.67;90.06;99973.09;105941;1254;124722;-75
2023/10/25 07:22:55;;;;;;;;;;;;;;;9.70;90.21;99979.27;106024;1256;61228;-75
2023/10/25 07:25:21;;;;;;;;;;;;;;;9.72;90.01;99977.35;106004;1256;61173;-75
2023/10/25 07:27:48;;;;;;;;;;;;;;;9.72;90.02;99978.93;105929;1258;124830;-75
2023/10/25 07:30:14;;;;;;;;;;;;;;;9.72;90.03;99971.94;105982;1260;66008;-77
2023/10/25 07:32:41;;;;;;;;;;;;;;;9.73;89.99;99968.79;105856;1255;124606;-75
2023/10/25 07:35:08;;;;;;;;;;;;;;;9.76;90.03;99966.39;105872;1259;61197;-75
2023/10/25 07:37:34;;;;;;;;;;;;;;;9.78;89.95;99963.61;105922;1254;61156;-76
2023/10/25 07:40:02;;;;;;;;;;;;;;;9.77;89.92;99962.20;105827;1255;125627;-75
2023/10/25 07:42:29;;;;;;;;;;;;;;;9.79;89.98;99957.14;105927;1256;65002;-76
2023/10/25 07:44:57;;;;;;;;;;;;;;;9.82;90.11;99955.08;105906;1258;125023;-76
2023/10/25 07:47:23;;;;;;;;;;;;;;;9.86;90.04;99960.77;105890;1256;59562;-76
2023/10/25 07:49:50;;;;;;;;;;;;;;;9.86;89.93;99954.98;105953;1256;61226;-75
2023/10/25 07:52:16;;;;;;;;;;;;;;;9.85;89.84;99952.70;105774;1258;124629;-74
2023/10/25 07:54:43;;;;;;;;;;;;;;;9.87;89.94;99947.10;105911;1259;66419;-76
2023/10/25 07:57:09;;;;;;;;;;;;;;;9.90;89.83;99951.88;105907;1255;125110;-77
2023/10/25 07:59:36;;;;;;;;;;;;;;;9.92;89.97;99948.77;105989;1260;61175;-74
2023/10/25 08:02:03;;;;;;;;;;;;;;;9.94;89.84;99952.98;105876;1255;61194;-75
2023/10/25 08:04:29;;;;;;;;;;;;;;;9.97;89.98;99950.23;105863;1255;125249;-75
2023/10/25 08:06:56;;;;;;;;;;;;;;;10.02;90.04;99951.20;106087;1258;66420;-75
2023/10/25 08:09:23;;;;;;;;;;;;;;;10.01;89.71;99949.58;106056;1258;125176;-75
2023/10/25 08:11:50;;;;;;;;;;;;;;;10.00;89.71;99950.45;106152;1256;61370;-76
2023/10/25 08:14:16;;;;;;;;;;;;;;;9.98;89.49;99949.89;106019;1255;124900;-76
2023/10/25 08:16:43;;;;;;;;;;;;;;;9.99;89.65;99948.33;106262;1255;74708;-75
2023/10/25 08:19:09;;;;;;;;;;;;;;;9.98;89.56;99947.45;106144;1256;65193;-75
2023/10/25 08:21:36;;;;;;;;;;;;;;;9.98;89.64;99948.14;105889;1256;125539;-75
2023/10/25 08:24:05;;;;;;;;;;;;;;;10.00;89.64;99948.17;105951;1256;61382;-75
2023/10/25 08:26:35;;;;;;;;;;;;;;;10.02;89.58;99947.52;105805;1256;125243;-75
2023/10/25 08:29:02;;;;;;;;;;;;;;;10.00;89.23;99947.64;105870;1256;74593;-76
2023/10/25 08:31:29;;;;;;;;;;;;;;;9.96;89.19;99947.42;105938;1256;65136;-75
2023/10/25 08:33:55;;;;;;;;;;;;;;;9.98;89.24;99946.04;105729;1259;124550;-76
2023/10/25 08:36:22;;;;;;;;;;;;;;;9.97;89.08;99944.44;105837;1255;61312;-75
2023/10/25 08:38:48;;;;;;;;;;;;;;;9.99;89.17;99945.70;105850;1259;124614;-76
2023/10/25 08:41:17;;;;;;;;;;;;;;;10.00;88.97;99947.81;106010;1259;74427;-76
2023/10/25 08:43:44;;;;;;;;;;;;;;;9.99;88.88;99945.36;105915;1259;67261;-75
2023/10/25 08:46:11;;;;;;;;;;;;;;;10.02;89.00;99946.45;105862;1260;124435;-76
2023/10/25 08:48:37;;;;;;;;;;;;;;;10.03;88.85;99949.45;105892;1259;61310;-76
2023/10/25 08:51:05;;;;;;;;;;;;;;;10.02;88.74;99947.34;105840;1260;125399;-75
2023/10/25 08:53:34;;;;;;;;;;;;;;;10.06;88.95;99952.10;105980;1256;73368;-76
2023/10/25 08:56:00;;;;;;;;;;;;;;;10.08;88.88;99954.60;105906;1255;66466;-76
2023/10/25 08:58:27;;;;;;;;;;;;;;;10.06;88.66;99953.89;105830;1256;124598;-75
2023/10/25 09:00:57;;;;;;;;;;;;;;;10.00;88.31;99956.40;106064;1256;61289;-75
2023/10/25 09:03:33;;;;;;;;;;;;;;;9.92;88.34;99951.20;105912;1256;124760;-81
2023/10/25 09:06:03;;;;;;;;;;;;;;;9.90;88.59;99951.35;105996;1260;74864;-82
2023/10/25 09:08:30;;;;;;;;;;;;;;;9.89;88.52;99953.09;105927;1255;123924;-82
2023/10/25 09:11:01;;;;;;;;;;;;;;;9.85;88.44;99951.30;106204;1256;71975;-81
2023/10/25 09:13:28;;;;;;;;;;;;;;;9.84;88.50;99948.13;106031;1258;61274;-82
2023/10/25 09:16:02;;;;;;;;;;;;;;;9.85;88.67;99948.48;105952;1255;124462;-81
2023/10/25 09:18:29;;;;;;;;;;;;;;;9.86;88.60;99944.11;107970;1254;74696;-81
2023/10/25 09:20:56;;;;;;;;;;;;;;;9.86;88.56;99943.06;105821;1254;228511;-81
2023/10/25 09:23:23;;;;;;;;;;;;;;;9.87;88.72;99942.02;106059;1256;72685;-79
2023/10/25 09:25:50;;;;;;;;;;;;;;;9.91;88.81;99943.66;106040;1255;61949;-81
2023/10/25 09:28:29;;;;;;;;;;;;;;;9.94;88.61;99943.35;106123;1258;124414;-80
2023/10/25 09:31:00;;;;;;;;;;;;;;;9.97;88.66;99943.57;106164;1256;74800;-80
2023/10/25 09:33:30;;;;;;;;;;;;;;;10.02;88.85;99942.94;105921;1255;124881;-81
2023/10/25 09:35:57;;;;;;;;;;;;;;;10.08;88.76;99943.73;106024;1260;70813;-81
2023/10/25 09:38:24;;;;;;;;;;;;;;;10.08;88.43;99939.52;106024;1254;125885;-80
2023/10/25 09:41:00;;;;;;;;;;;;;;;10.07;88.34;99934.42;106218;1256;61606;-89
2023/10/25 09:43:28;;;;;;;;;;;;;;;10.10;88.68;99930.42;106656;1256;73329;-85
2023/10/25 09:45:56;;;;;;;;;;;;;;;10.10;88.53;99927.09;106456;1256;124754;-80
2023/10/25 09:48:23;;;;;;;;;;;;;;;10.07;88.42;99927.08;105965;1256;73217;-79
2023/10/25 09:50:58;;;;;;;;;;;;;;;10.00;88.27;99921.54;106029;1256;124734;-79
2023/10/25 09:53:31;;;;;;;;;;;;;;;10.00;88.46;99919.60;106006;1258;61306;-79
2023/10/25 09:56:00;;;;;;;;;;;;;;;9.98;88.27;99916.60;105923;1256;73392;-79
2023/10/25 09:58:27;;;;;;;;;;;;;;;9.91;88.05;99917.03;106036;1255;124359;-78
2023/10/25 10:00:53;;;;;;;;;;;;;;;9.88;88.00;99915.41;106073;1258;71399;-78
2023/10/25 10:03:38;;;;;;;;;;;;;;;9.85;88.14;99911.68;105886;1256;124967;-79
2023/10/25 10:06:22;;;;;;;;;;;;;;;9.82;88.18;99918.13;106054;1258;61197;-78
2023/10/25 10:08:54;;;;;;;;;;;;;;;9.77;88.11;99916.11;105977;1256;124721;-79
2023/10/25 10:11:22;;;;;;;;;;;;;;;9.72;88.03;99910.61;105918;1260;64906;-79
2023/10/25 10:14:08;;;;;;;;;;;;;;;9.66;87.88;99912.63;105817;1256;72777;-79
2023/10/25 10:16:35;;;;;;;;;;;;;;;9.62;87.90;99913.79;108638;1255;124747;-79
2023/10/25 10:19:01;;;;;;;;;;;;;;;9.58;88.01;99909.00;105908;1256;60142;-79
2023/10/25 10:21:28;;;;;;;;;;;;;;;9.55;87.90;99911.59;105908;1256;124428;-79
2023/10/25 10:23:56;;;;;;;;;;;;;;;9.54;87.92;99909.48;105893;1261;61286;-78
2023/10/25 10:26:42;;;;;;;;;;;;;;;9.54;88.04;99907.89;105879;1259;124835;-79
2023/10/25 10:29:27;;;;;;;;;;;;;;;9.57;88.05;99907.77;105950;1256;61567;-78
2023/10/25 10:31:57;;;;;;;;;;;;;;;9.62;88.18;99904.84;106037;1256;61370;-78
2023/10/25 10:34:34;;;;;;;;;;;;;;;9.61;87.72;99903.79;105837;1260;124540;-78
2023/10/25 10:37:10;;;;;;;;;;;;;;;9.61;87.77;99906.23;105920;1261;66148;-79
2023/10/25 10:39:38;;;;;;;;;;;;;;;9.64;87.93;99905.05;105816;1260;124576;-79
2023/10/25 10:42:05;;;;;;;;;;;;;;;9.65;87.65;99907.01;106003;1259;61237;-79
2023/10/25 10:44:35;;;;;;;;;;;;;;;9.63;87.51;99908.19;105930;1256;124964;-78
2023/10/25 10:47:02;;;;;;;;;;;;;;;9.60;87.46;99905.00;105919;1257;74280;-77
2023/10/25 10:49:29;;;;;;;;;;;;;;;9.55;87.26;99903.89;105997;1256;64984;-78
2023/10/25 10:51:56;;;;;;;;;;;;;;;9.50;87.24;99899.78;106572;1256;124476;-78
2023/10/25 10:54:23;;;;;;;;;;;;;;;9.44;87.10;99903.17;105954;1256;61271;-78
2023/10/25 10:56:50;;;;;;;;;;;;;;;9.42;87.25;99898.77;106009;1256;124622;-78
2023/10/25 10:59:16;;;;;;;;;;;;;;;9.41;87.33;99895.60;105858;1256;75597;-78
2023/10/25 11:01:43;;;;;;;;;;;;;;;9.42;87.38;99896.32;106006;1256;65372;-78
2023/10/25 11:04:10;;;;;;;;;;;;;;;9.41;87.26;99898.05;105824;1256;124388;-77
2023/10/25 11:06:38;;;;;;;;;;;;;;;9.45;87.43;99894.98;105870;1256;61356;-79
2023/10/25 11:09:05;;;;;;;;;;;;;;;9.48;87.32;99897.80;105857;1255;124424;-78
2023/10/25 11:11:31;;;;;;;;;;;;;;;9.50;87.21;99899.95;105896;1261;73006;-76
2023/10/25 11:13:58;;;;;;;;;;;;;;;9.45;86.96;99899.34;105942;1256;64718;-76
2023/10/25 11:16:24;;;;;;;;;;;;;;;9.43;87.21;99900.02;105897;1256;124579;-78
2023/10/25 11:18:52;;;;;;;;;;;;;;;9.43;87.19;99900.02;105885;1256;61334;-77
2023/10/25 11:21:19;;;;;;;;;;;;;;;9.38;86.92;99897.48;105911;1256;124479;-76
2023/10/25 11:23:45;;;;;;;;;;;;;;;9.36;87.23;99894.83;105905;1258;72511;-76
2023/10/25 11:26:12;;;;;;;;;;;;;;;9.38;87.22;99888.02;106016;1256;64920;-77
2023/10/25 11:28:39;;;;;;;;;;;;;;;9.40;87.37;99885.95;105846;1256;124730;-77
2023/10/25 11:31:05;;;;;;;;;;;;;;;9.42;87.31;99884.04;105926;1261;61324;-78
2023/10/25 11:33:42;;;;;;;;;;;;;;;9.43;87.33;99875.66;105801;1256;124693;-78
2023/10/25 11:36:11;;;;;;;;;;;;;;;9.49;87.24;99876.13;105893;1260;74703;-78
2023/10/25 11:38:42;;;;;;;;;;;;;;;9.52;87.17;99873.70;105913;1256;124861;-77
2023/10/25 11:41:09;;;;;;;;;;;;;;;9.54;87.06;99876.20;105877;1256;71382;-77
2023/10/25 11:43:35;;;;;;;;;;;;;;;9.54;86.98;99873.92;106022;1256;61258;-78
2023/10/25 11:46:03;;;;;;;;;;;;;;;9.55;87.03;99873.58;105739;1260;125665;-78
2023/10/25 11:48:29;;;;;;;;;;;;;;;9.52;86.81;99872.32;105749;1256;74670;-78
2023/10/25 11:50:56;;;;;;;;;;;;;;;9.51;86.99;99868.95;105824;1256;124653;-78
2023/10/25 11:53:22;;;;;;;;;;;;;;;9.52;86.84;99874.06;105815;1256;71664;-78
2023/10/25 11:55:50;;;;;;;;;;;;;;;9.50;86.84;99868.43;105852;1259;61225;-77
2023/10/25 11:58:16;;;;;;;;;;;;;;;9.48;86.76;99867.17;105928;1256;124422;-78
2023/10/25 12:00:43;;;;;;;;;;;;;;;9.45;86.71;99865.20;105951;1260;74409;-77
2023/10/25 12:03:10;;;;;;;;;;;;;;;9.42;86.75;99866.03;105728;1256;124876;-78
2023/10/25 12:05:37;;;;;;;;;;;;;;;9.41;86.84;99866.36;105843;1256;72715;-77
2023/10/25 12:08:04;;;;;;;;;;;;;;;9.43;86.97;99865.51;105924;1255;61689;-77
2023/10/25 12:10:31;;;;;;;;;;;;;;;9.42;86.82;99865.84;105789;1259;124713;-77
2023/10/25 12:12:57;;;;;;;;;;;;;;;9.38;86.74;99866.84;105765;1255;75120;-78
2023/10/25 12:15:24;;;;;;;;;;;;;;;9.33;86.72;99865.19;105689;1256;124455;-91
2023/10/25 12:17:51;;;;;;;;;;;;;;;9.31;86.96;99862.70;106714;1260;72703;-85
2023/10/25 12:20:17;;;;;;;;;;;;;;;9.34;87.10;99865.89;106475;1260;124691;-84
2023/10/25 12:22:44;;;;;;;;;;;;;;;9.33;87.08;99863.61;106630;1256;61139;-85
2023/10/25 12:25:11;;;;;;;;;;;;;;;9.33;87.20;99865.54;106514;1256;73181;-85
2023/10/25 12:27:37;;;;;;;;;;;;;;;9.34;87.18;99859.42;106393;1255;125389;-83
2023/10/25 12:30:04;;;;;;;;;;;;;;;9.38;87.15;99860.54;106425;1256;72903;-76
2023/10/25 12:32:31;;;;;;;;;;;;;;;9.36;87.06;99855.77;105803;1256;125298;-76
2023/10/25 12:34:57;;;;;;;;;;;;;;;9.31;87.05;99856.56;106035;1259;61207;-76
2023/10/25 12:37:25;;;;;;;;;;;;;;;9.27;87.11;99850.55;105972;1254;74663;-76
2023/10/25 12:39:52;;;;;;;;;;;;;;;9.28;87.26;99848.81;105865;1256;124901;-76